Time;durP1;ratioP1;P1;durP2;ratioP2;P2;SDS_P1;SDS_P2;PMS_P1;PMS_P2;Temp;Humidity;BMP_temperature;BMP_pressure;BME280_temperature;BME280_humidity;BME280_pressure;Samples;Min_cycle;Max_cycle;Signal;HPM_P1;HPM_P2
2023/05/25 00:02:05;;;;;;;8.60;7.40;;;;;;;16.79;72.83;100488.73;107975;1257;61896;-81
2023/05/25 00:04:35;;;;;;;8.00;7.20;;;;;;;16.83;72.87;100487.52;108048;1256;60374;-81
2023/05/25 00:07:03;;;;;;;8.30;7.30;;;;;;;16.86;72.82;100486.02;107989;1258;74633;-81
2023/05/25 00:09:31;;;;;;;8.10;7.30;;;;;;;16.91;72.83;100490.66;108046;1257;71878;-83
2023/05/25 00:11:59;;;;;;;8.30;7.00;;;;;;;16.94;72.72;100491.35;108126;1256;72709;-83
2023/05/25 00:14:26;;;;;;;10.20;8.00;;;;;;;16.95;72.69;100488.20;108078;1255;61154;-81
2023/05/25 00:16:54;;;;;;;8.30;7.50;;;;;;;16.98;72.66;100490.09;108006;1260;61356;-82
2023/05/25 00:19:22;;;;;;;10.40;9.00;;;;;;;17.00;72.70;100486.54;108037;1260;73360;-81
2023/05/25 00:21:49;;;;;;;9.10;8.20;;;;;;;17.03;72.73;100485.55;108002;1254;71508;-81
2023/05/25 00:24:17;;;;;;;11.00;8.80;;;;;;;17.06;72.85;100483.04;108051;1254;71150;-81
2023/05/25 00:26:46;;;;;;;11.90;8.80;;;;;;;17.10;72.93;100480.55;108043;1254;61706;-81
2023/05/25 00:29:14;;;;;;;9.10;7.80;;;;;;;17.14;73.11;100483.60;108008;1254;61167;-81
2023/05/25 00:31:41;;;;;;;12.40;8.50;;;;;;;17.16;73.18;100487.08;108101;1257;73330;-81
2023/05/25 00:34:09;;;;;;;9.50;7.80;;;;;;;17.17;73.06;100485.66;107985;1257;71416;-81
2023/05/25 00:36:36;;;;;;;11.30;7.90;;;;;;;17.15;72.78;100489.11;107990;1257;72702;-82
2023/05/25 00:39:04;;;;;;;9.40;7.30;;;;;;;17.11;72.62;100488.09;108010;1257;61201;-80
2023/05/25 00:41:33;;;;;;;7.90;7.10;;;;;;;17.06;72.54;100487.33;107965;1254;61142;-80
2023/05/25 00:44:01;;;;;;;9.70;7.70;;;;;;;17.02;72.35;100485.52;107960;1257;73414;-80
2023/05/25 00:46:29;;;;;;;8.30;7.30;;;;;;;16.99;72.30;100487.86;108027;1257;73317;-81
2023/05/25 00:48:56;;;;;;;8.90;7.80;;;;;;;16.96;72.33;100486.46;107987;1257;72679;-81
2023/05/25 00:51:25;;;;;;;9.90;8.30;;;;;;;16.91;72.18;100484.29;108029;1255;61811;-81
2023/05/25 00:53:53;;;;;;;9.50;8.50;;;;;;;16.87;72.43;100484.58;108030;1254;61074;-81
2023/05/25 00:56:27;;;;;;;10.90;9.20;;;;;;;16.88;72.69;100482.05;107996;1254;74791;-81
2023/05/25 00:58:55;;;;;;;11.40;8.80;;;;;;;16.92;73.08;100481.05;107987;1254;72800;-82
2023/05/25 01:01:24;;;;;;;12.90;9.30;;;;;;;16.95;73.53;100480.65;107950;1256;71425;-81
2023/05/25 01:03:52;;;;;;;10.70;9.00;;;;;;;17.00;73.87;100483.74;107810;1259;61802;-81
2023/05/25 01:06:21;;;;;;;10.10;9.00;;;;;;;17.04;74.24;100486.45;108002;1254;60071;-81
2023/05/25 01:08:55;;;;;;;10.00;9.00;;;;;;;17.08;74.44;100489.67;108053;1259;74654;-81
2023/05/25 01:11:25;;;;;;;9.20;8.30;;;;;;;17.11;74.64;100493.65;108056;1254;72645;-81
2023/05/25 01:13:55;;;;;;;11.80;9.00;;;;;;;17.14;74.51;100495.00;107993;1257;72718;-81
2023/05/25 01:16:24;;;;;;;12.20;10.60;;;;;;;17.15;74.47;100490.83;107954;1257;61077;-81
2023/05/25 01:18:53;;;;;;;13.20;10.50;;;;;;;17.18;74.67;100490.05;108102;1255;60071;-81
2023/05/25 01:21:25;;;;;;;11.80;10.70;;;;;;;17.21;75.06;100494.15;108041;1260;74669;-81
2023/05/25 01:24:07;;;;;;;11.60;10.40;;;;;;;17.20;75.66;100494.54;108142;1254;72895;-81
2023/05/25 01:26:41;;;;;;;12.10;10.90;;;;;;;17.16;76.24;100492.95;108008;1256;71470;-81
2023/05/25 01:29:09;;;;;;;11.40;10.20;;;;;;;17.15;76.88;100493.75;107996;1256;62593;-81
2023/05/25 01:31:38;;;;;;;12.30;10.00;;;;;;;17.14;77.30;100489.21;108145;1256;60236;-81
2023/05/25 01:34:05;;;;;;;13.30;10.90;;;;;;;17.11;77.73;100489.38;107923;1254;74669;-81
2023/05/25 01:36:33;;;;;;;11.40;10.30;;;;;;;17.11;78.06;100489.17;107946;1254;71458;-81
2023/05/25 01:39:05;;;;;;;11.00;9.70;;;;;;;17.15;78.27;100486.94;107950;1258;70721;-81
2023/05/25 01:41:33;;;;;;;11.90;10.30;;;;;;;17.18;78.35;100486.21;108038;1258;61702;-81
2023/05/25 01:44:00;;;;;;;15.50;9.50;;;;;;;17.22;78.37;100484.41;108053;1254;60259;-81
2023/05/25 01:46:38;;;;;;;14.50;9.90;;;;;;;17.25;78.52;100483.84;108006;1259;74692;-81
2023/05/25 01:49:20;;;;;;;11.80;10.60;;;;;;;17.30;78.54;100485.56;107890;1260;72847;-81
2023/05/25 01:52:11;;;;;;;11.30;9.90;;;;;;;17.36;78.44;100487.92;108031;1255;71401;-82
2023/05/25 01:54:42;;;;;;;10.10;9.10;;;;;;;17.39;78.29;100486.41;107869;1255;60454;-82
2023/05/25 01:57:12;;;;;;;10.30;8.70;;;;;;;17.39;77.97;100485.49;108029;1254;61157;-82
2023/05/25 01:59:45;;;;;;;10.10;9.10;;;;;;;17.40;77.71;100485.85;108144;1254;73345;-82
2023/05/25 02:02:15;;;;;;;10.40;9.40;;;;;;;17.40;77.57;100487.83;108017;1254;72730;-82
2023/05/25 02:04:42;;;;;;;10.30;9.30;;;;;;;17.40;77.37;100490.86;107995;1260;72712;-81
2023/05/25 02:07:10;;;;;;;10.50;9.10;;;;;;;17.40;77.13;100494.42;108098;1256;61312;-82
2023/05/25 02:09:38;;;;;;;9.90;8.80;;;;;;;17.39;77.01;100499.73;107958;1256;59844;-82
2023/05/25 02:12:06;;;;;;;8.90;8.00;;;;;;;17.28;76.59;100500.73;107995;1259;74727;-81
2023/05/25 02:14:34;;;;;;;10.00;7.80;;;;;;;17.12;76.37;100504.70;107937;1257;72718;-81
2023/05/25 02:17:02;;;;;;;8.50;7.10;;;;;;;16.97;76.18;100510.50;107800;1258;72611;-81
2023/05/25 02:19:30;;;;;;;8.30;7.30;;;;;;;16.84;76.09;100513.09;107857;1258;61859;-82
2023/05/25 02:21:57;;;;;;;9.50;8.00;;;;;;;16.78;75.82;100510.88;108113;1255;61253;-81
2023/05/25 02:24:26;;;;;;;9.10;7.20;;;;;;;16.76;75.93;100510.54;108042;1254;74595;-82
2023/05/25 02:26:53;;;;;;;9.10;7.30;;;;;;;16.73;75.89;100510.84;107932;1254;71457;-82
2023/05/25 02:29:21;;;;;;;8.90;7.20;;;;;;;16.74;75.93;100511.09;108069;1254;71745;-81
2023/05/25 02:31:49;;;;;;;10.90;8.30;;;;;;;16.75;75.83;100518.05;107989;1256;61781;-82
2023/05/25 02:34:17;;;;;;;8.60;7.70;;;;;;;16.77;75.81;100519.73;108000;1254;61147;-81
2023/05/25 02:36:45;;;;;;;8.60;7.40;;;;;;;16.77;75.93;100520.22;107919;1257;73666;-82
2023/05/25 02:39:12;;;;;;;10.00;8.30;;;;;;;16.69;76.04;100517.77;107981;1254;71358;-82
2023/05/25 02:41:40;;;;;;;11.10;8.30;;;;;;;16.64;76.34;100520.33;108006;1257;72525;-81
2023/05/25 02:44:07;;;;;;;9.40;8.20;;;;;;;16.63;76.69;100519.31;107748;1256;320522;-81
2023/05/25 02:46:35;;;;;;;9.80;8.30;;;;;;;16.68;76.88;100519.71;107982;1257;61141;-81
2023/05/25 02:49:03;;;;;;;9.40;8.30;;;;;;;16.75;77.05;100516.70;108003;1254;74648;-81
2023/05/25 02:51:32;;;;;;;10.50;8.30;;;;;;;16.82;77.14;100519.92;107795;1257;73811;-81
2023/05/25 02:54:01;;;;;;;8.90;7.80;;;;;;;16.90;77.10;100518.58;107947;1259;71263;-81
2023/05/25 02:56:30;;;;;;;9.30;8.30;;;;;;;16.96;77.07;100519.33;107960;1258;61164;-80
2023/05/25 02:58:58;;;;;;;11.60;8.20;;;;;;;17.00;77.03;100518.25;107932;1254;59317;-81
2023/05/25 03:01:30;;;;;;;9.50;8.50;;;;;;;17.05;77.14;100514.40;107931;1254;73486;-80
2023/05/25 03:03:58;;;;;;;8.90;8.00;;;;;;;17.05;77.20;100513.45;107912;1254;73020;-81
2023/05/25 03:06:26;;;;;;;12.10;9.40;;;;;;;17.08;77.37;100511.89;107985;1254;73232;-81
2023/05/25 03:09:03;;;;;;;12.50;9.70;;;;;;;17.11;77.40;100513.13;108014;1257;61126;-81
2023/05/25 03:11:31;;;;;;;11.60;9.70;;;;;;;17.17;77.49;100519.92;107984;1256;60620;-81
2023/05/25 03:13:59;;;;;;;12.90;9.60;;;;;;;17.26;77.53;100521.56;107967;1257;74707;-81
2023/05/25 03:16:27;;;;;;;10.90;9.30;;;;;;;17.34;77.52;100525.11;107858;1258;71422;-81
2023/05/25 03:18:55;;;;;;;10.30;9.10;;;;;;;17.41;77.48;100521.36;108036;1257;72760;-81
2023/05/25 03:21:23;;;;;;;12.70;10.30;;;;;;;17.47;77.39;100523.71;107864;1257;61670;-81
2023/05/25 03:23:51;;;;;;;10.60;9.50;;;;;;;17.58;77.35;100521.73;107951;1254;61166;-80
2023/05/25 03:26:18;;;;;;;10.10;9.10;;;;;;;17.69;77.20;100527.43;107996;1254;72387;-81
2023/05/25 03:28:46;;;;;;;11.00;9.80;;;;;;;17.77;77.00;100534.61;107917;1257;71993;-81
2023/05/25 03:31:14;;;;;;;11.30;10.20;;;;;;;17.87;76.87;100533.33;107901;1254;71363;-81
2023/05/25 03:33:41;;;;;;;11.50;10.40;;;;;;;17.95;76.74;100531.89;107936;1254;60741;-80
2023/05/25 03:36:11;;;;;;;14.10;11.10;;;;;;;18.01;76.51;100532.92;107995;1254;60054;-81
2023/05/25 03:38:38;;;;;;;12.20;10.90;;;;;;;18.03;76.42;100531.73;107937;1254;74013;-81
2023/05/25 03:41:06;;;;;;;12.40;10.90;;;;;;;18.10;76.54;100529.80;108086;1254;72703;-81
2023/05/25 03:43:34;;;;;;;12.00;10.80;;;;;;;18.19;76.48;100532.05;107951;1254;71052;-81
2023/05/25 03:46:02;;;;;;;11.50;10.40;;;;;;;18.31;76.50;100526.50;108028;1254;61269;-81
2023/05/25 03:48:29;;;;;;;13.80;11.50;;;;;;;18.41;76.31;100522.67;107988;1259;60037;-82
2023/05/25 03:50:57;;;;;;;12.50;11.10;;;;;;;18.52;76.29;100525.64;108016;1259;74623;-82
2023/05/25 03:53:26;;;;;;;12.80;11.40;;;;;;;18.65;76.14;100524.39;108085;1259;71577;-82
2023/05/25 03:55:54;;;;;;;14.30;12.50;;;;;;;18.78;76.08;100524.89;108079;1257;72878;-82
2023/05/25 03:58:21;;;;;;;14.90;13.40;;;;;;;18.87;76.02;100524.25;107846;1254;62370;-81
2023/05/25 04:00:50;;;;;;;15.70;12.40;;;;;;;18.97;75.88;100526.36;108056;1254;60056;-80
2023/05/25 04:03:19;;;;;;;15.40;13.00;;;;;;;19.09;75.87;100525.20;108051;1257;74704;-81
2023/05/25 04:05:47;;;;;;;16.40;13.30;;;;;;;19.22;75.58;100531.09;107902;1254;71467;-81
2023/05/25 04:08:16;;;;;;;17.40;12.60;;;;;;;19.32;74.96;100528.95;107788;1260;72993;-81
2023/05/25 04:10:45;;;;;;;13.60;12.20;;;;;;;19.33;73.98;100526.17;107879;1254;61750;-81
2023/05/25 04:13:12;;;;;;;16.00;12.60;;;;;;;19.37;73.63;100526.15;107911;1259;61253;-81
2023/05/25 04:15:40;;;;;;;13.80;12.40;;;;;;;19.44;73.42;100530.02;107953;1254;74660;-81
2023/05/25 04:18:13;;;;;;;13.50;12.10;;;;;;;19.55;73.21;100533.31;107971;1254;72855;-80
2023/05/25 04:20:42;;;;;;;12.30;11.00;;;;;;;19.65;72.94;100533.93;107993;1254;72770;-81
2023/05/25 04:23:12;;;;;;;14.10;10.90;;;;;;;19.75;72.81;100532.39;107949;1256;61368;-80
2023/05/25 04:25:41;;;;;;;10.50;9.40;;;;;;;19.85;72.62;100533.90;107990;1254;61186;-81
2023/05/25 04:28:11;;;;;;;12.00;9.20;;;;;;;19.99;72.57;100533.34;107974;1254;73482;-81
2023/05/25 04:31:14;;;;;;;12.50;8.80;;;;;;;20.20;71.92;100530.95;107824;1257;73371;-80
2023/05/25 04:34:01;;;;;;;8.60;7.40;;;;;;;20.42;71.12;100526.10;107928;1254;71956;-81
2023/05/25 04:36:31;;;;;;;9.90;7.40;;;;;;;20.57;70.12;100524.46;108009;1254;60384;-81
2023/05/25 04:39:03;;;;;;;8.40;6.60;;;;;;;20.67;69.26;100522.38;108026;1254;61071;-81
2023/05/25 04:41:34;;;;;;;7.20;6.50;;;;;;;20.77;68.46;100523.00;108015;1254;73329;-80
2023/05/25 04:44:06;;;;;;;9.90;6.80;;;;;;;20.91;67.90;100526.58;108008;1254;71950;-82
2023/05/25 04:46:45;;;;;;;9.10;6.40;;;;;;;21.06;67.25;100525.26;107939;1254;71430;-82
2023/05/25 04:49:18;;;;;;;8.00;7.20;;;;;;;21.21;66.23;100526.83;108045;1254;62282;-82
2023/05/25 04:51:46;;;;;;;7.00;6.30;;;;;;;21.33;65.29;100524.27;107981;1254;61231;-82
2023/05/25 04:54:14;;;;;;;7.20;5.90;;;;;;;21.43;64.56;100524.83;108112;1254;74064;-81
2023/05/25 04:56:42;;;;;;;9.90;7.00;;;;;;;21.52;63.98;100522.23;107971;1254;72829;-82
2023/05/25 04:59:10;;;;;;;9.10;7.00;;;;;;;21.63;63.07;100523.70;107952;1257;72452;-82
2023/05/25 05:01:39;;;;;;;7.60;6.80;;;;;;;21.72;62.31;100523.16;107893;1254;61307;-82
2023/05/25 05:04:09;;;;;;;8.40;6.90;;;;;;;21.80;61.60;100523.77;107954;1257;60983;-81
2023/05/25 05:06:37;;;;;;;9.40;7.30;;;;;;;21.87;61.26;100520.06;107934;1254;73434;-81
2023/05/25 05:09:06;;;;;;;7.80;6.30;;;;;;;21.86;61.00;100520.52;107928;1254;71438;-82
2023/05/25 05:11:33;;;;;;;7.30;6.50;;;;;;;21.85;60.92;100524.02;107986;1254;71438;-82
2023/05/25 05:14:02;;;;;;;7.90;6.70;;;;;;;21.87;60.77;100527.20;108016;1256;61160;-82
2023/05/25 05:16:33;;;;;;;8.70;6.10;;;;;;;21.90;60.76;100520.81;107879;1261;60094;-82
2023/05/25 05:19:02;;;;;;;7.90;6.40;;;;;;;21.94;60.26;100518.39;108094;1254;74825;-81
2023/05/25 05:21:31;;;;;;;7.80;6.70;;;;;;;22.01;59.87;100520.25;108052;1254;71301;-80
2023/05/25 05:24:00;;;;;;;7.60;6.30;;;;;;;22.08;59.39;100516.78;108116;1254;70961;-81
2023/05/25 05:26:28;;;;;;;6.40;5.70;;;;;;;22.15;59.22;100519.84;107995;1257;61243;-82
2023/05/25 05:28:57;;;;;;;8.40;6.10;;;;;;;22.22;58.73;100524.67;107923;1254;61093;-82
2023/05/25 05:31:28;;;;;;;10.30;6.60;;;;;;;22.31;58.93;100528.88;107964;1254;74725;-82
2023/05/25 05:33:56;;;;;;;10.10;6.70;;;;;;;22.45;58.51;100525.08;108020;1254;72219;-83
2023/05/25 05:36:24;;;;;;;9.70;7.10;;;;;;;22.62;58.42;100523.61;107988;1254;71352;-81
2023/05/25 05:38:52;;;;;;;6.90;6.20;;;;;;;22.78;57.77;100524.73;107869;1254;61206;-82
2023/05/25 05:41:20;;;;;;;7.30;5.80;;;;;;;22.87;56.86;100526.96;107843;1254;61144;-82
2023/05/25 05:43:49;;;;;;;9.20;5.80;;;;;;;22.98;56.45;100532.02;107979;1256;74010;-84
2023/05/25 05:46:17;;;;;;;9.70;6.10;;;;;;;23.08;56.16;100532.98;108049;1254;71729;-81
2023/05/25 05:48:44;;;;;;;6.30;5.60;;;;;;;23.26;55.65;100537.55;107892;1254;71170;-81
2023/05/25 05:51:12;;;;;;;7.60;5.60;;;;;;;23.41;54.81;100533.89;107837;1257;61130;-81
2023/05/25 05:53:40;;;;;;;8.10;5.20;;;;;;;23.56;54.39;100530.67;107946;1254;61154;-81
2023/05/25 05:56:16;;;;;;;7.40;5.30;;;;;;;23.71;54.02;100533.38;108045;1254;73421;-82
2023/05/25 05:58:47;;;;;;;8.00;5.70;;;;;;;23.81;53.56;100538.34;108023;1254;71967;-81
2023/05/25 06:01:18;;;;;;;9.40;5.30;;;;;;;23.85;53.32;100533.23;107997;1257;73180;-82
2023/05/25 06:03:46;;;;;;;6.70;5.00;;;;;;;23.91;52.60;100537.14;107826;1254;61247;-81
2023/05/25 06:06:14;;;;;;;7.30;5.60;;;;;;;23.94;51.84;100536.74;107850;1255;61161;-82
2023/05/25 06:08:42;;;;;;;8.30;5.10;;;;;;;23.97;51.59;100538.15;108017;1254;74617;-81
2023/05/25 06:11:09;;;;;;;6.40;5.00;;;;;;;24.00;51.22;100540.58;107965;1254;71658;-81
2023/05/25 06:13:37;;;;;;;7.20;5.00;;;;;;;24.02;50.78;100539.85;108127;1254;71603;-81
2023/05/25 06:16:06;;;;;;;8.70;4.70;;;;;;;24.07;50.47;100540.46;107989;1257;59332;-80
2023/05/25 06:18:35;;;;;;;6.70;4.60;;;;;;;24.13;50.61;100543.03;107848;1254;61196;-81
2023/05/25 06:21:02;;;;;;;5.70;4.90;;;;;;;24.22;50.65;100544.60;107838;1254;74701;-80
2023/05/25 06:23:31;;;;;;;5.40;4.60;;;;;;;24.33;50.48;100540.20;107968;1254;72751;-80
2023/05/25 06:26:03;;;;;;;6.60;4.70;;;;;;;24.44;49.68;100541.05;108016;1254;72698;-82
2023/05/25 06:28:31;;;;;;;6.10;4.60;;;;;;;24.50;49.22;100539.60;108000;1254;61123;-83
2023/05/25 06:30:59;;;;;;;6.70;4.80;;;;;;;24.58;49.08;100537.99;108084;1254;61235;-81
2023/05/25 06:33:27;;;;;;;8.00;4.20;;;;;;;24.63;48.95;100536.55;107922;1254;74696;-81
2023/05/25 06:35:59;;;;;;;6.60;4.40;;;;;;;24.70;48.65;100540.92;107848;1261;72792;-81
2023/05/25 06:38:27;;;;;;;6.00;4.10;;;;;;;24.79;47.96;100539.67;108067;1256;71434;-84
2023/05/25 06:40:54;;;;;;;7.60;4.30;;;;;;;24.88;47.49;100539.20;108049;1254;61215;-82
2023/05/25 06:43:22;;;;;;;4.90;3.90;;;;;;;24.98;47.39;100539.58;108128;1254;61170;-81
2023/05/25 06:46:02;;;;;;;7.50;4.30;;;;;;;25.11;46.78;100538.01;108214;1254;73395;-82
2023/05/25 06:48:30;;;;;;;4.90;3.90;;;;;;;25.23;46.11;100537.27;108011;1260;71738;-82
2023/05/25 06:50:57;;;;;;;6.10;4.50;;;;;;;25.32;45.68;100542.40;108065;1254;73704;-81
2023/05/25 06:53:25;;;;;;;5.80;4.30;;;;;;;25.38;45.02;100541.99;107971;1254;61211;-82
2023/05/25 06:55:53;;;;;;;5.60;4.00;;;;;;;25.45;44.61;100539.48;108070;1254;60990;-83
2023/05/25 06:58:21;;;;;;;6.60;4.40;;;;;;;25.56;44.58;100540.58;108045;1254;74653;-82
2023/05/25 07:00:48;;;;;;;7.10;3.80;;;;;;;25.67;44.01;100537.60;108042;1254;71578;-82
2023/05/25 07:03:16;;;;;;;5.40;4.10;;;;;;;25.78;43.70;100533.30;108067;1254;71065;-82
2023/05/25 07:05:43;;;;;;;7.30;4.20;;;;;;;25.86;43.84;100534.97;108081;1254;61022;-81
2023/05/25 07:08:11;;;;;;;5.70;3.70;;;;;;;25.92;43.66;100533.36;108043;1254;61153;-83
2023/05/25 07:10:39;;;;;;;5.80;3.90;;;;;;;25.98;43.44;100532.91;108106;1254;74360;-81
2023/05/25 07:13:08;;;;;;;5.10;3.70;;;;;;;26.08;43.26;100532.23;108072;1254;72969;-82
2023/05/25 07:15:36;;;;;;;5.50;3.60;;;;;;;26.16;43.36;100534.05;108110;1254;71848;-82
2023/05/25 07:18:03;;;;;;;5.70;3.70;;;;;;;26.26;42.87;100536.56;108062;1254;61231;-82
2023/05/25 07:20:32;;;;;;;6.70;3.80;;;;;;;26.36;42.15;100532.84;108039;1254;60988;-82
2023/05/25 07:23:01;;;;;;;6.30;4.10;;;;;;;26.48;41.91;100528.90;108070;1254;74605;-83
2023/05/25 07:25:29;;;;;;;4.50;3.50;;;;;;;26.61;42.06;100535.65;108073;1254;72737;-82
2023/05/25 07:27:57;;;;;;;5.40;4.10;;;;;;;26.70;41.48;100534.21;108048;1254;71272;-82
2023/05/25 07:30:24;;;;;;;5.90;4.40;;;;;;;26.68;41.51;100537.14;107874;1257;61198;-82
2023/05/25 07:32:52;;;;;;;5.80;3.90;;;;;;;26.69;41.76;100536.38;108020;1257;61082;-82
2023/05/25 07:35:20;;;;;;;7.10;4.00;;;;;;;26.67;41.14;100534.16;108046;1256;74655;-81
2023/05/25 07:37:58;;;;;;;6.60;4.00;;;;;;;26.66;41.21;100531.73;107895;1256;71443;-80
2023/05/25 07:40:26;;;;;;;7.50;4.10;;;;;;;26.77;41.05;100534.57;108099;1256;72786;-81
2023/05/25 07:42:54;;;;;;;7.10;4.60;;;;;;;26.89;40.37;100532.16;107896;1256;60505;-81
2023/05/25 07:45:21;;;;;;;7.00;4.10;;;;;;;26.93;40.15;100529.16;107910;1256;60273;-83
2023/05/25 07:47:49;;;;;;;7.90;4.40;;;;;;;26.95;40.34;100531.94;107960;1256;74659;-81
2023/05/25 07:50:17;;;;;;;5.00;3.80;;;;;;;26.96;39.90;100531.02;107937;1257;72909;-82
2023/05/25 07:52:45;;;;;;;5.10;4.00;;;;;;;26.87;39.96;100531.59;107906;1254;71408;-81
2023/05/25 07:55:14;;;;;;;6.70;4.30;;;;;;;26.80;39.65;100529.67;107993;1254;61106;-81
2023/05/25 07:57:42;;;;;;;5.90;4.70;;;;;;;26.73;39.00;100523.48;108088;1254;61099;-81
2023/05/25 08:00:10;;;;;;;8.30;4.40;;;;;;;26.82;39.47;100525.48;108046;1254;74663;-81
2023/05/25 08:02:40;;;;;;;8.30;4.20;;;;;;;26.90;39.66;100525.98;108096;1254;71660;-81
2023/05/25 08:05:08;;;;;;;6.80;4.00;;;;;;;26.94;39.51;100529.10;108056;1254;62459;-81
2023/05/25 08:07:36;;;;;;;6.90;4.40;;;;;;;26.97;38.89;100524.61;108046;1254;61255;-81
2023/05/25 08:10:07;;;;;;;7.60;4.50;;;;;;;27.03;38.62;100524.84;108019;1254;61250;-81
2023/05/25 08:12:35;;;;;;;8.40;4.10;;;;;;;27.09;38.45;100523.75;107903;1254;74746;-83
2023/05/25 08:15:16;;;;;;;5.70;4.30;;;;;;;27.08;38.15;100516.39;108079;1254;71464;-82
2023/05/25 08:17:43;;;;;;;7.60;4.80;;;;;;;27.04;37.97;100521.34;108042;1257;71379;-81
2023/05/25 08:20:11;;;;;;;7.70;5.10;;;;;;;26.97;38.24;100519.36;107937;1254;61094;-81
2023/05/25 08:22:39;;;;;;;9.30;5.10;;;;;;;26.87;38.36;100517.48;107981;1254;61170;-82
2023/05/25 08:25:07;;;;;;;7.10;4.80;;;;;;;26.77;38.74;100514.05;108012;1255;74597;-81
2023/05/25 08:27:35;;;;;;;6.80;4.40;;;;;;;26.70;38.82;100514.34;107999;1254;72902;-82
2023/05/25 08:30:04;;;;;;;7.60;4.90;;;;;;;26.68;38.42;100510.69;107988;1256;71504;-82
2023/05/25 08:32:33;;;;;;;7.20;4.70;;;;;;;26.69;38.99;100514.08;108019;1254;61236;-82
2023/05/25 08:35:03;;;;;;;10.00;5.40;;;;;;;26.71;39.43;100515.74;108052;1254;61148;-81
2023/05/25 08:37:31;;;;;;;7.10;5.20;;;;;;;26.68;39.33;100515.45;108039;1254;75117;-82
2023/05/25 08:40:01;;;;;;;9.10;5.20;;;;;;;26.66;38.95;100511.45;107924;1257;72756;-81
2023/05/25 08:42:29;;;;;;;7.60;5.20;;;;;;;26.65;38.73;100508.55;108136;1254;71478;-81
2023/05/25 08:44:57;;;;;;;8.70;5.50;;;;;;;26.66;38.67;100514.20;108039;1255;61320;-82
2023/05/25 08:47:25;;;;;;;7.90;5.00;;;;;;;26.71;38.61;100509.88;107986;1256;61247;-82
2023/05/25 08:49:53;;;;;;;8.20;4.60;;;;;;;26.78;38.34;100510.77;107988;1256;74689;-83
2023/05/25 08:52:21;;;;;;;6.80;5.20;;;;;;;26.86;38.17;100507.92;108046;1255;72788;-82
2023/05/25 08:54:50;;;;;;;8.50;5.00;;;;;;;26.96;38.21;100507.05;108057;1254;72932;-83
2023/05/25 08:57:52;;;;;;;8.70;5.10;;;;;;;27.08;37.79;100505.59;108065;1257;61281;-82
2023/05/25 09:00:21;;;;;;;;;;;;;;;27.31;36.89;100502.55;107890;1254;59856;-82
2023/05/25 09:02:54;;;;;;;7.20;4.50;;;;;;;27.57;36.03;100497.53;108107;1254;73935;-82
2023/05/25 09:05:22;;;;;;;6.10;4.60;;;;;;;27.89;35.22;100491.11;108048;1254;72538;-83
2023/05/25 09:07:53;;;;;;;5.80;4.30;;;;;;;28.21;34.41;100493.85;108008;1254;72672;-82
2023/05/25 09:10:21;;;;;;;5.60;4.20;;;;;;;28.51;32.90;100499.96;107785;1257;61243;-80
2023/05/25 09:12:50;;;;;;;7.20;4.30;;;;;;;28.56;32.35;100506.58;107999;1254;61247;-82
2023/05/25 09:15:18;;;;;;;8.50;4.80;;;;;;;28.36;33.50;100512.52;107748;1254;73456;-83
2023/05/25 09:17:45;;;;;;;5.90;4.30;;;;;;;27.96;33.41;100511.96;107868;1257;71605;-82
2023/05/25 09:20:13;;;;;;;6.40;4.30;;;;;;;27.50;33.49;100513.45;107860;1254;72772;-83
2023/05/25 09:22:41;;;;;;;6.70;4.20;;;;;;;27.16;34.22;100508.05;107806;1257;61099;-83
2023/05/25 09:25:09;;;;;;;7.10;4.30;;;;;;;26.85;35.83;100509.55;107904;1255;61112;-81
2023/05/25 09:27:38;;;;;;;6.10;3.70;;;;;;;26.56;37.01;100507.05;108028;1256;74721;-83
2023/05/25 09:30:07;;;;;;;9.10;4.70;;;;;;;26.38;37.24;100503.85;107849;1256;71598;-83
2023/05/25 09:32:35;;;;;;;7.40;4.40;;;;;;;26.27;38.26;100497.93;108039;1257;71493;-81
2023/05/25 09:35:10;;;;;;;5.50;4.30;;;;;;;26.17;38.99;100499.58;107947;1257;61023;-81
2023/05/25 09:37:39;;;;;;;5.60;4.20;;;;;;;26.13;39.70;100497.31;107952;1257;60309;-82
2023/05/25 09:40:09;;;;;;;5.70;3.80;;;;;;;26.12;39.86;100499.62;107854;1255;74699;-83
2023/05/25 09:42:41;;;;;;;6.10;4.20;;;;;;;26.10;39.73;100498.59;108005;1257;72757;-82
2023/05/25 09:45:08;;;;;;;6.40;4.10;;;;;;;26.09;40.22;100495.74;107834;1254;71511;-81
2023/05/25 09:47:37;;;;;;;6.00;4.10;;;;;;;26.07;40.70;100496.81;108062;1257;61238;-82
2023/05/25 09:50:05;;;;;;;8.10;4.20;;;;;;;26.08;40.55;100492.52;107898;1254;61077;-82
2023/05/25 09:52:33;;;;;;;5.00;4.30;;;;;;;26.05;40.49;100489.27;107945;1256;73669;-82
2023/05/25 09:55:00;;;;;;;5.20;3.30;;;;;;;26.04;40.02;100493.92;107861;1254;72715;-81
2023/05/25 09:57:28;;;;;;;6.70;4.20;;;;;;;26.00;39.53;100494.01;107998;1254;71405;-80
2023/05/25 09:59:56;;;;;;;6.80;4.10;;;;;;;25.85;39.30;100489.65;108086;1254;61093;-81
2023/05/25 10:02:23;;;;;;;7.80;4.40;;;;;;;25.64;39.86;100482.19;108028;1254;61102;-82
2023/05/25 10:04:51;;;;;;;6.20;3.90;;;;;;;25.38;39.52;100482.70;108058;1259;74720;-81
2023/05/25 10:07:19;;;;;;;6.50;4.20;;;;;;;25.14;39.90;100484.52;107966;1256;72884;-80
2023/05/25 10:09:47;;;;;;;7.30;4.10;;;;;;;24.92;41.00;100485.27;107822;1257;71697;-82
2023/05/25 10:12:17;;;;;;;7.00;4.30;;;;;;;24.71;41.32;100484.31;107844;1256;61144;-82
2023/05/25 10:14:44;;;;;;;7.60;4.30;;;;;;;24.56;41.82;100482.15;108100;1254;61276;-82
2023/05/25 10:17:12;;;;;;;9.80;4.10;;;;;;;24.44;42.38;100478.30;107909;1254;74673;-81
2023/05/25 10:19:49;;;;;;;6.50;4.10;;;;;;;24.37;42.23;100470.35;107943;1254;72741;-80
2023/05/25 10:22:36;;;;;;;5.40;3.80;;;;;;;24.32;42.46;100474.98;108059;1256;72818;-81
2023/05/25 10:25:33;;;;;;;6.50;4.10;;;;;;;24.20;43.16;100481.83;108107;1257;60105;-82
2023/05/25 10:28:04;;;;;;;8.10;4.10;;;;;;;23.96;44.44;100490.67;108605;1254;59406;-82
2023/05/25 10:30:31;;;;;;;7.80;4.30;;;;;;;23.76;45.17;100495.65;108571;1254;73438;-82
2023/05/25 10:32:59;;;;;;;5.40;3.90;;;;;;;23.61;45.86;100497.61;108365;1254;71468;-81
2023/05/25 10:35:27;;;;;;;6.70;4.40;;;;;;;23.52;46.37;100497.60;108307;1254;71828;-81
2023/05/25 10:37:55;;;;;;;7.40;4.30;;;;;;;23.48;46.65;100501.37;108548;1254;59937;-80
2023/05/25 10:40:23;;;;;;;7.90;4.40;;;;;;;23.47;47.01;100500.17;108277;1254;61116;-82
2023/05/25 10:42:50;;;;;;;6.20;4.40;;;;;;;23.46;47.38;100500.38;108234;1254;74670;-81
2023/05/25 10:45:18;;;;;;;15.00;6.00;;;;;;;23.36;47.54;100504.08;108095;1257;71175;-82
2023/05/25 10:47:45;;;;;;;6.50;4.70;;;;;;;23.18;47.91;100505.38;108075;1254;72696;-82
2023/05/25 10:50:25;;;;;;;7.60;4.30;;;;;;;22.91;48.13;100508.98;108061;1256;61243;-82
2023/05/25 10:53:06;;;;;;;10.30;4.30;;;;;;;22.66;48.40;100505.21;108071;1254;61342;-84
2023/05/25 10:55:52;;;;;;;7.10;4.40;;;;;;;22.52;48.22;100506.33;108102;1254;74739;-82
2023/05/25 10:58:21;;;;;;;4.90;3.80;;;;;;;22.43;47.98;100505.39;108210;1254;72783;-83
2023/05/25 11:01:08;;;;;;;6.80;3.90;;;;;;;22.34;47.32;100502.98;108128;1256;72813;-81
2023/05/25 11:03:42;;;;;;;8.20;3.80;;;;;;;22.31;47.38;100497.23;107948;1254;60304;-83
2023/05/25 11:06:14;;;;;;;6.90;3.80;;;;;;;22.27;47.16;100497.86;108115;1254;59032;-82
2023/05/25 11:08:55;;;;;;;6.30;3.40;;;;;;;22.24;47.29;100501.84;108096;1254;73397;-81
2023/05/25 11:12:01;;;;;;;5.00;3.40;;;;;;;22.25;47.83;100509.00;108134;1254;72638;-82
2023/05/25 11:14:30;;;;;;;7.30;4.00;;;;;;;22.20;48.24;100514.74;108130;1254;71493;-82
2023/05/25 11:17:12;;;;;;;4.70;3.30;;;;;;;22.09;47.79;100507.64;108062;1254;61112;-82
2023/05/25 11:19:47;;;;;;;5.10;3.50;;;;;;;21.98;47.90;100511.00;108061;1254;61108;-81
2023/05/25 11:22:20;;;;;;;7.70;3.50;;;;;;;21.87;47.98;100508.20;107889;1254;73876;-82
2023/05/25 11:24:51;;;;;;;5.50;3.20;;;;;;;21.82;48.48;100506.61;108113;1254;72751;-81
2023/05/25 11:27:23;;;;;;;5.20;3.20;;;;;;;21.78;48.74;100506.10;108107;1257;72101;-83